CheckWX is a tool to help pilots better visualize weather data.  It is not intended as a substitute for an official pre-flight weather briefing.

02:36:48 UTC

KHRO METAR
Boone County Airport
Harrison, Arkansas, USA
Current

44 mins ago

KHRO 060153Z AUTO 15004KT 10SM BKN120 13/02 A2994 RMK AO2 SLP138 T01280017
Observed
Dec-6 @ 01:53 UTC
Wind
  • 150° at 4 KTS
Visibility
10 SM
Flight Rules
VFR
Cloud Levels
  • Broken at 12,000' AGL
Temperature
13°C / 55°F
Dewpoint
C / 36°F
Humidity
47%
Altimeter
29.94" Hg
Pressure
1013.92 hPa
Previous

2 hours ago

KHRO 060053Z AUTO 16008KT 10SM OVC110 13/01 A2992 RMK AO2 SLP131 T01330006
Observed
Dec-6 @ 00:53 UTC
Wind
  • 160° at 8 KTS
Visibility
10 SM
Flight Rules
VFR
Cloud Levels
  • Overcast at 11,000' AGL
Temperature
13°C / 55°F
Dewpoint
C / 34°F
Humidity
44%
Altimeter
29.92" Hg
Pressure
1013.22 hPa
Previous

3 hours ago

KHRO 052353Z AUTO 15011KT 10SM BKN110 14/00 A2991 RMK AO2 SLP125 T01440000 10167 20139 55000
Observed
Dec-5 @ 23:53 UTC
Wind
  • 150° at 11 KTS
Visibility
10 SM
Flight Rules
VFR
Cloud Levels
  • Broken at 11,000' AGL
Temperature
14°C / 57°F
Dewpoint
C / 32°F
Humidity
39%
Altimeter
29.91" Hg
Pressure
1012.92 hPa